Time;durP1;ratioP1;P1;durP2;ratioP2;P2;SDS_P1;SDS_P2;PMS_P1;PMS_P2;Temp;Humidity;BMP_temperature;BMP_pressure;BME280_temperature;BME280_humidity;BME280_pressure;Samples;Min_cycle;Max_cycle;Signal;HPM_P1;HPM_P2
2023/05/20 00:01:05;;;;;;;4.77;1.67;;;;;;;;;;5056717;28;20025;-61
2023/05/20 00:03:30;;;;;;;4.50;1.80;;;;;;;;;;5056718;28;20017;-61
2023/05/20 00:05:55;;;;;;;6.47;1.77;;;;;;;;;;5056878;28;20032;-61
2023/05/20 00:08:21;;;;;;;4.07;1.93;;;;;;;;;;5056790;28;20404;-61
2023/05/20 00:10:46;;;;;;;3.67;1.67;;;;;;;;;;5056504;28;20021;-61
2023/05/20 00:13:11;;;;;;;4.10;1.47;;;;;;;;;;5056453;28;20021;-62
2023/05/20 00:15:36;;;;;;;4.40;1.80;;;;;;;;;;5056736;28;20024;-61
2023/05/20 00:18:02;;;;;;;6.87;1.80;;;;;;;;;;5057750;28;20393;-61
2023/05/20 00:20:28;;;;;;;6.30;2.27;;;;;;;;;;5074317;28;20033;-62
2023/05/20 00:22:53;;;;;;;6.80;1.93;;;;;;;;;;5076146;28;20445;-61
2023/05/20 00:25:18;;;;;;;5.47;1.90;;;;;;;;;;5076138;28;20028;-61
2023/05/20 00:27:45;;;;;;;4.40;1.73;;;;;;;;;;5076322;28;20025;-62
2023/05/20 00:30:11;;;;;;;4.50;1.80;;;;;;;;;;5076137;28;20016;-62
2023/05/20 00:32:36;;;;;;;8.83;2.00;;;;;;;;;;5076361;28;20066;-61
2023/05/20 00:35:02;;;;;;;5.47;1.80;;;;;;;;;;5074769;28;20028;-61
2023/05/20 00:37:27;;;;;;;5.50;1.80;;;;;;;;;;5069240;28;20028;-61
2023/05/20 00:39:52;;;;;;;4.27;2.00;;;;;;;;;;5055877;28;20583;-61
2023/05/20 00:42:25;;;;;;;7.70;2.00;;;;;;;;;;5055873;28;20025;-61
2023/05/20 00:44:50;;;;;;;3.40;1.60;;;;;;;;;;5060602;28;20012;-61
2023/05/20 00:47:20;;;;;;;5.07;1.80;;;;;;;;;;5075770;28;20036;-61
2023/05/20 00:49:46;;;;;;;4.73;1.90;;;;;;;;;;5075625;28;20159;-61
2023/05/20 00:52:11;;;;;;;5.87;1.80;;;;;;;;;;5075005;28;20493;-62
2023/05/20 00:54:37;;;;;;;4.70;1.70;;;;;;;;;;5075727;28;20121;-62
2023/05/20 00:57:04;;;;;;;6.17;1.53;;;;;;;;;;5075615;28;20146;-62
2023/05/20 00:59:29;;;;;;;6.10;1.80;;;;;;;;;;5075519;28;20025;-61
2023/05/20 01:01:55;;;;;;;5.30;2.00;;;;;;;;;;5074878;28;20032;-61
2023/05/20 01:04:20;;;;;;;4.03;1.70;;;;;;;;;;5075327;28;20127;-61
2023/05/20 01:06:46;;;;;;;4.10;1.80;;;;;;;;;;5075721;28;20029;-62
2023/05/20 01:09:12;;;;;;;5.87;2.07;;;;;;;;;;5072280;28;20035;-61
2023/05/20 01:11:41;;;;;;;5.37;1.90;;;;;;;;;;5075695;28;20016;-62
2023/05/20 01:14:07;;;;;;;4.53;1.70;;;;;;;;;;5075442;28;20381;-61
2023/05/20 01:16:34;;;;;;;7.03;2.10;;;;;;;;;;5063948;28;20020;-61
2023/05/20 01:19:01;;;;;;;5.83;1.77;;;;;;;;;;5059075;28;20029;-61
2023/05/20 01:21:26;;;;;;;5.63;1.83;;;;;;;;;;5075254;28;20032;-61
2023/05/20 01:23:52;;;;;;;4.67;1.80;;;;;;;;;;5075479;28;20384;-62
2023/05/20 01:26:18;;;;;;;4.17;1.70;;;;;;;;;;5075440;28;20495;-64
2023/05/20 01:28:43;;;;;;;4.00;1.60;;;;;;;;;;5056977;28;20503;-61
2023/05/20 01:31:22;;;;;;;4.47;1.60;;;;;;;;;;5075227;28;20028;-61
2023/05/20 01:33:50;;;;;;;3.80;1.40;;;;;;;;;;5075084;28;20025;-62
2023/05/20 01:36:16;;;;;;;6.17;1.43;;;;;;;;;;5071582;28;20017;-62
2023/05/20 01:38:41;;;;;;;6.17;1.80;;;;;;;;;;5057507;28;20039;-61
2023/05/20 01:41:07;;;;;;;3.93;1.77;;;;;;;;;;5064456;28;20036;-61
2023/05/20 01:43:33;;;;;;;5.37;1.60;;;;;;;;;;5074844;28;20031;-62
2023/05/20 01:46:01;;;;;;;4.07;1.40;;;;;;;;;;5074963;28;20115;-61
2023/05/20 01:48:26;;;;;;;4.90;1.70;;;;;;;;;;5074553;28;20022;-62
2023/05/20 01:50:52;;;;;;;6.87;1.63;;;;;;;;;;5074936;28;20024;-62
2023/05/20 01:53:17;;;;;;;4.50;1.57;;;;;;;;;;5074577;28;20073;-62
2023/05/20 01:55:42;;;;;;;4.17;1.60;;;;;;;;;;5074831;28;20021;-62
2023/05/20 01:58:08;;;;;;;3.73;1.70;;;;;;;;;;5074823;28;20032;-62
2023/05/20 02:00:33;;;;;;;2.97;1.37;;;;;;;;;;5074444;28;20036;-61
2023/05/20 02:02:59;;;;;;;3.83;1.63;;;;;;;;;;5072491;28;20036;-61
2023/05/20 02:05:25;;;;;;;3.20;1.40;;;;;;;;;;5074102;28;20045;-62
2023/05/20 02:07:56;;;;;;;4.67;1.60;;;;;;;;;;5074470;28;20388;-61
2023/05/20 02:10:22;;;;;;;3.92;1.60;;;;;;;;;;5074220;28;20036;-62
2023/05/20 02:12:48;;;;;;;4.27;1.60;;;;;;;;;;5074463;28;20016;-62
2023/05/20 02:15:13;;;;;;;7.50;1.60;;;;;;;;;;5073822;28;20020;-62
2023/05/20 02:17:38;;;;;;;3.83;1.60;;;;;;;;;;5074358;28;20029;-62
2023/05/20 02:20:06;;;;;;;5.67;1.50;;;;;;;;;;5073950;28;20435;-62
2023/05/20 02:22:31;;;;;;;5.13;1.70;;;;;;;;;;5074231;28;20380;-62
2023/05/20 02:24:57;;;;;;;3.53;1.70;;;;;;;;;;5074190;28;20031;-62
2023/05/20 02:27:22;;;;;;;4.00;1.57;;;;;;;;;;5072493;28;20020;-61
2023/05/20 02:29:47;;;;;;;3.97;1.30;;;;;;;;;;5074087;28;20028;-62
2023/05/20 02:32:13;;;;;;;5.30;1.40;;;;;;;;;;5073797;28;20074;-62
2023/05/20 02:34:38;;;;;;;5.40;1.50;;;;;;;;;;5074200;28;20385;-62
2023/05/20 02:37:04;;;;;;;6.33;1.60;;;;;;;;;;5070731;28;20465;-62
2023/05/20 02:39:29;;;;;;;6.17;1.50;;;;;;;;;;5073965;28;20095;-62
2023/05/20 02:41:55;;;;;;;4.43;1.50;;;;;;;;;;5073641;28;20025;-62
2023/05/20 02:44:20;;;;;;;5.60;1.50;;;;;;;;;;5073899;28;20021;-62
2023/05/20 02:46:45;;;;;;;4.67;1.60;;;;;;;;;;5073586;28;20096;-62
2023/05/20 02:49:11;;;;;;;4.50;1.70;;;;;;;;;;5073419;28;20048;-62
2023/05/20 02:51:36;;;;;;;6.93;1.43;;;;;;;;;;5072898;28;20087;-62
2023/05/20 02:54:01;;;;;;;4.13;1.50;;;;;;;;;;5072504;28;20025;-62
2023/05/20 02:56:27;;;;;;;4.27;1.63;;;;;;;;;;5073359;28;20028;-62
2023/05/20 02:58:52;;;;;;;3.80;1.30;;;;;;;;;;5073657;28;20051;-61
2023/05/20 03:01:18;;;;;;;3.43;1.73;;;;;;;;;;5072454;28;20024;-62
2023/05/20 03:03:43;;;;;;;4.43;1.60;;;;;;;;;;5072801;28;20514;-62
2023/05/20 03:06:08;;;;;;;2.37;1.20;;;;;;;;;;5073154;28;20036;-62
2023/05/20 03:08:34;;;;;;;7.80;1.70;;;;;;;;;;5051768;28;20047;-62
2023/05/20 03:11:00;;;;;;;7.27;1.50;;;;;;;;;;5053560;28;20028;-62
2023/05/20 03:13:25;;;;;;;3.33;1.40;;;;;;;;;;5053543;28;20017;-62
2023/05/20 03:15:50;;;;;;;6.40;1.60;;;;;;;;;;5053159;28;20465;-62
2023/05/20 03:18:16;;;;;;;6.20;1.30;;;;;;;;;;5053548;28;20104;-63
2023/05/20 03:20:41;;;;;;;6.70;1.50;;;;;;;;;;5053083;28;20036;-62
2023/05/20 03:23:07;;;;;;;3.73;1.50;;;;;;;;;;5053444;28;20029;-62
2023/05/20 03:25:32;;;;;;;3.10;1.30;;;;;;;;;;5052973;28;20021;-62
2023/05/20 03:27:58;;;;;;;6.00;1.30;;;;;;;;;;5070344;28;20117;-62
2023/05/20 03:30:23;;;;;;;4.53;1.60;;;;;;;;;;5072958;28;20028;-62
2023/05/20 03:32:49;;;;;;;4.00;1.40;;;;;;;;;;5072714;28;20017;-62
2023/05/20 03:35:14;;;;;;;5.10;1.30;;;;;;;;;;5073042;28;20019;-62
2023/05/20 03:37:40;;;;;;;4.70;1.23;;;;;;;;;;5072858;28;20013;-62
2023/05/20 03:40:06;;;;;;;3.50;1.90;;;;;;;;;;5072955;28;20437;-62
2023/05/20 03:42:31;;;;;;;2.97;1.20;;;;;;;;;;5073206;28;20460;-62
2023/05/20 03:44:58;;;;;;;4.10;1.40;;;;;;;;;;5072846;28;20029;-62
2023/05/20 03:47:24;;;;;;;4.27;1.30;;;;;;;;;;5058836;28;20052;-62
2023/05/20 03:49:49;;;;;;;3.47;1.40;;;;;;;;;;5054123;28;20056;-61
2023/05/20 03:52:15;;;;;;;4.23;1.30;;;;;;;;;;5072833;28;20027;-62
2023/05/20 03:54:40;;;;;;;3.87;1.40;;;;;;;;;;5073036;28;20021;-61
2023/05/20 03:57:05;;;;;;;9.93;1.50;;;;;;;;;;5072808;28;20472;-61
2023/05/20 03:59:31;;;;;;;4.10;1.47;;;;;;;;;;5072825;28;20028;-62
2023/05/20 04:01:56;;;;;;;3.53;1.30;;;;;;;;;;5071765;28;20465;-62
2023/05/20 04:04:21;;;;;;;3.30;1.20;;;;;;;;;;5072550;28;20052;-62
2023/05/20 04:06:47;;;;;;;4.07;1.20;;;;;;;;;;5072626;28;20166;-61
2023/05/20 04:09:12;;;;;;;7.37;1.30;;;;;;;;;;5072850;28;20036;-62
2023/05/20 04:11:38;;;;;;;3.27;1.37;;;;;;;;;;5072198;28;20047;-61
2023/05/20 04:14:03;;;;;;;4.03;1.40;;;;;;;;;;5072708;28;20027;-62
2023/05/20 04:16:28;;;;;;;2.93;1.20;;;;;;;;;;5072952;28;20103;-62
2023/05/20 04:18:54;;;;;;;3.83;1.40;;;;;;;;;;5072890;28;20396;-61
2023/05/20 04:21:20;;;;;;;2.30;1.10;;;;;;;;;;5070968;28;20024;-62
2023/05/20 04:23:45;;;;;;;2.73;1.10;;;;;;;;;;5072745;28;20028;-61
2023/05/20 04:26:11;;;;;;;3.97;1.40;;;;;;;;;;5072644;28;20480;-62
2023/05/20 04:28:37;;;;;;;2.90;1.30;;;;;;;;;;5072383;28;20028;-62
2023/05/20 04:31:03;;;;;;;4.03;1.40;;;;;;;;;;5072713;28;20516;-61
2023/05/20 04:33:28;;;;;;;4.40;1.40;;;;;;;;;;5069017;28;20104;-61
2023/05/20 04:35:57;;;;;;;4.80;1.27;;;;;;;;;;5072621;28;20104;-62
2023/05/20 04:38:28;;;;;;;3.43;1.27;;;;;;;;;;5072335;28;20048;-61
2023/05/20 04:40:53;;;;;;;3.90;1.27;;;;;;;;;;5072289;28;20027;-61
2023/05/20 04:43:19;;;;;;;3.37;1.20;;;;;;;;;;5073052;28;20024;-61
2023/05/20 04:45:44;;;;;;;3.87;1.47;;;;;;;;;;5076153;28;20447;-60
2023/05/20 04:48:09;;;;;;;3.07;1.10;;;;;;;;;;5076077;28;20036;-60
2023/05/20 04:50:36;;;;;;;4.53;1.63;;;;;;;;;;5076096;28;20021;-61
2023/05/20 04:53:02;;;;;;;4.73;1.67;;;;;;;;;;5075975;28;20392;-61
2023/05/20 04:55:27;;;;;;;5.20;1.30;;;;;;;;;;5075154;28;20020;-61
2023/05/20 04:57:52;;;;;;;2.90;1.20;;;;;;;;;;5075962;28;20401;-61
2023/05/20 05:00:18;;;;;;;3.43;1.17;;;;;;;;;;5074867;28;20033;-60
2023/05/20 05:02:43;;;;;;;4.17;1.10;;;;;;;;;;5074232;28;20023;-61
2023/05/20 05:05:08;;;;;;;4.33;1.10;;;;;;;;;;5075403;28;20041;-61
2023/05/20 05:07:34;;;;;;;4.00;1.10;;;;;;;;;;5075463;28;20009;-61
2023/05/20 05:09:59;;;;;;;3.90;1.33;;;;;;;;;;5075594;28;20028;-60
2023/05/20 05:12:25;;;;;;;4.50;1.30;;;;;;;;;;5072011;28;20040;-61
2023/05/20 05:14:50;;;;;;;4.10;1.30;;;;;;;;;;5055370;28;20028;-62
2023/05/20 05:17:15;;;;;;;3.47;1.30;;;;;;;;;;5055731;28;20059;-61
2023/05/20 05:19:41;;;;;;;4.30;1.23;;;;;;;;;;5055549;28;20120;-61
2023/05/20 05:22:06;;;;;;;2.80;1.20;;;;;;;;;;5055513;28;20029;-61
2023/05/20 05:24:31;;;;;;;5.67;1.40;;;;;;;;;;5055500;28;20029;-60
2023/05/20 05:26:56;;;;;;;3.00;1.20;;;;;;;;;;5055474;28;20021;-61
2023/05/20 05:29:22;;;;;;;4.43;1.20;;;;;;;;;;5055306;28;20048;-61
2023/05/20 05:31:47;;;;;;;3.03;1.10;;;;;;;;;;5057810;28;20084;-61
2023/05/20 05:34:12;;;;;;;3.20;1.00;;;;;;;;;;5055346;28;20088;-61
2023/05/20 05:36:38;;;;;;;4.43;1.23;;;;;;;;;;5055136;28;20021;-61
2023/05/20 05:39:03;;;;;;;4.47;1.38;;;;;;;;;;5055166;28;20028;-60
2023/05/20 05:41:29;;;;;;;3.45;1.38;;;;;;;;;;5063401;28;20449;-60
2023/05/20 05:43:54;;;;;;;5.82;1.13;;;;;;;;;;5074764;28;20035;-61
2023/05/20 05:46:19;;;;;;;4.05;1.30;;;;;;;;;;5063609;28;20025;-61
2023/05/20 05:48:47;;;;;;;4.60;1.35;;;;;;;;;;5054616;28;20047;-61
2023/05/20 05:51:13;;;;;;;4.88;1.58;;;;;;;;;;5054916;28;20542;-61
2023/05/20 05:53:38;;;;;;;4.40;1.48;;;;;;;;;;5054575;28;20025;-61
2023/05/20 05:56:04;;;;;;;2.85;1.23;;;;;;;;;;5054407;28;20075;-60
2023/05/20 05:58:29;;;;;;;8.38;1.48;;;;;;;;;;5054435;28;20021;-61
2023/05/20 06:00:55;;;;;;;3.90;1.40;;;;;;;;;;5056147;28;20532;-60
2023/05/20 06:03:20;;;;;;;3.90;1.17;;;;;;;;;;5074567;28;20089;-60
2023/05/20 06:05:48;;;;;;;4.32;1.50;;;;;;;;;;5074041;28;20055;-60
2023/05/20 06:08:13;;;;;;;4.30;1.30;;;;;;;;;;5074147;28;20107;-61
2023/05/20 06:10:39;;;;;;;4.78;1.40;;;;;;;;;;5074234;28;20095;-60
2023/05/20 06:13:04;;;;;;;3.03;1.20;;;;;;;;;;5074501;28;20024;-60
2023/05/20 06:15:29;;;;;;;3.53;1.30;;;;;;;;;;5072572;28;20397;-60
2023/05/20 06:17:55;;;;;;;3.60;1.42;;;;;;;;;;5073852;28;20012;-60
2023/05/20 06:20:20;;;;;;;3.75;1.30;;;;;;;;;;5074028;28;20100;-60
2023/05/20 06:22:45;;;;;;;5.93;1.80;;;;;;;;;;5073986;28;20016;-60
2023/05/20 06:25:11;;;;;;;3.83;1.30;;;;;;;;;;5074025;28;20103;-61
2023/05/20 06:27:36;;;;;;;3.67;1.80;;;;;;;;;;5073248;28;20099;-61
2023/05/20 06:30:01;;;;;;;3.17;1.45;;;;;;;;;;5055997;28;20032;-60
2023/05/20 06:32:27;;;;;;;4.88;1.52;;;;;;;;;;5054064;28;20028;-60
2023/05/20 06:34:52;;;;;;;3.38;1.40;;;;;;;;;;5054072;28;20019;-60
2023/05/20 06:37:17;;;;;;;4.47;1.40;;;;;;;;;;5054078;28;20052;-60
2023/05/20 06:39:43;;;;;;;3.80;1.30;;;;;;;;;;5053974;28;20138;-61
2023/05/20 06:42:08;;;;;;;4.32;1.40;;;;;;;;;;5053959;28;20499;-60
2023/05/20 06:44:33;;;;;;;3.60;1.60;;;;;;;;;;5053707;28;20021;-60
2023/05/20 06:46:59;;;;;;;5.97;1.50;;;;;;;;;;5053589;28;20052;-60
2023/05/20 06:49:24;;;;;;;6.15;1.50;;;;;;;;;;5053532;28;20033;-61
2023/05/20 06:51:49;;;;;;;7.05;1.80;;;;;;;;;;5053811;28;20017;-61
2023/05/20 06:54:14;;;;;;;6.10;1.60;;;;;;;;;;5053555;28;20494;-60
2023/05/20 06:56:40;;;;;;;4.95;1.50;;;;;;;;;;5053695;28;20020;-61
2023/05/20 06:59:05;;;;;;;3.00;1.40;;;;;;;;;;5053824;28;20021;-61
2023/05/20 07:01:30;;;;;;;5.63;1.60;;;;;;;;;;5053564;28;20025;-60
2023/05/20 07:03:56;;;;;;;4.05;1.58;;;;;;;;;;5066571;28;20033;-61
2023/05/20 07:06:21;;;;;;;4.65;1.60;;;;;;;;;;5072849;28;20028;-60
2023/05/20 07:08:46;;;;;;;3.90;1.65;;;;;;;;;;5073180;28;20107;-61
2023/05/20 07:11:12;;;;;;;5.22;1.70;;;;;;;;;;5073411;28;20020;-61
2023/05/20 07:13:37;;;;;;;3.67;1.50;;;;;;;;;;5061127;28;20393;-60
2023/05/20 07:16:03;;;;;;;4.50;1.73;;;;;;;;;;5053426;28;20411;-61
2023/05/20 07:18:28;;;;;;;4.05;1.50;;;;;;;;;;5053082;28;20108;-61
2023/05/20 07:20:55;;;;;;;3.17;1.45;;;;;;;;;;5052996;28;20021;-60
2023/05/20 07:23:20;;;;;;;3.53;1.40;;;;;;;;;;5053413;28;20466;-60
2023/05/20 07:25:46;;;;;;;4.35;1.73;;;;;;;;;;5053307;28;20048;-61
2023/05/20 07:28:11;;;;;;;5.00;1.73;;;;;;;;;;5052881;28;20021;-61
2023/05/20 07:30:36;;;;;;;3.70;1.90;;;;;;;;;;5053024;28;20023;-60
2023/05/20 07:33:02;;;;;;;3.60;1.60;;;;;;;;;;5052953;28;20024;-61
2023/05/20 07:35:27;;;;;;;5.75;1.70;;;;;;;;;;5053211;28;20017;-61
2023/05/20 07:37:52;;;;;;;6.32;1.73;;;;;;;;;;5060388;28;20480;-61
2023/05/20 07:40:18;;;;;;;4.15;1.33;;;;;;;;;;5069705;28;20016;-61
2023/05/20 07:42:43;;;;;;;5.88;1.50;;;;;;;;;;5073166;28;20048;-61
2023/05/20 07:45:09;;;;;;;3.60;1.40;;;;;;;;;;5068897;28;20501;-61
2023/05/20 07:47:34;;;;;;;2.75;1.23;;;;;;;;;;5053152;28;20465;-61
2023/05/20 07:49:59;;;;;;;4.88;1.60;;;;;;;;;;5053051;28;20021;-61
2023/05/20 07:52:24;;;;;;;4.05;1.60;;;;;;;;;;5053103;28;20029;-61
2023/05/20 07:54:50;;;;;;;4.40;1.52;;;;;;;;;;5053069;28;20418;-61
2023/05/20 07:57:15;;;;;;;3.63;1.20;;;;;;;;;;5052850;28;20108;-61
2023/05/20 07:59:40;;;;;;;3.00;1.45;;;;;;;;;;5053024;28;20082;-62
2023/05/20 08:02:06;;;;;;;3.80;1.60;;;;;;;;;;5052561;28;20036;-62
2023/05/20 08:04:31;;;;;;;4.10;1.60;;;;;;;;;;5052535;28;20052;-61
2023/05/20 08:06:56;;;;;;;3.63;1.58;;;;;;;;;;5052890;28;20100;-61
2023/05/20 08:09:22;;;;;;;3.20;1.48;;;;;;;;;;5052530;28;20107;-61
2023/05/20 08:11:47;;;;;;;2.58;1.20;;;;;;;;;;5069019;28;20019;-61
2023/05/20 08:14:12;;;;;;;3.25;1.33;;;;;;;;;;5072541;28;20477;-60
2023/05/20 08:16:37;;;;;;;4.70;1.80;;;;;;;;;;5072821;28;20017;-61
2023/05/20 08:19:03;;;;;;;3.13;1.40;;;;;;;;;;5074081;28;20025;-61
2023/05/20 08:21:28;;;;;;;3.78;1.38;;;;;;;;;;5076603;28;20028;-61
2023/05/20 08:23:53;;;;;;;2.65;1.05;;;;;;;;;;5076227;28;20029;-61
2023/05/20 08:26:19;;;;;;;4.78;1.70;;;;;;;;;;5075251;28;20017;-61
2023/05/20 08:28:44;;;;;;;3.15;1.35;;;;;;;;;;5073841;28;20016;-61
2023/05/20 08:31:09;;;;;;;3.20;1.35;;;;;;;;;;5076485;28;20074;-61
2023/05/20 08:33:35;;;;;;;3.13;1.30;;;;;;;;;;5076167;28;20024;-61
2023/05/20 08:36:00;;;;;;;2.78;1.30;;;;;;;;;;5076057;28;20177;-62
2023/05/20 08:38:25;;;;;;;6.93;1.30;;;;;;;;;;5075968;28;20027;-62
2023/05/20 08:40:52;;;;;;;3.00;1.25;;;;;;;;;;5076205;28;20036;-62
2023/05/20 08:43:17;;;;;;;3.03;1.35;;;;;;;;;;5076213;28;20388;-61
2023/05/20 08:45:43;;;;;;;7.35;1.40;;;;;;;;;;5075902;28;20099;-61
2023/05/20 08:48:08;;;;;;;3.47;1.20;;;;;;;;;;5076051;28;20078;-62
2023/05/20 08:50:33;;;;;;;4.70;1.25;;;;;;;;;;5076132;28;20021;-61
2023/05/20 08:52:59;;;;;;;5.55;1.45;;;;;;;;;;5075130;28;20454;-61
2023/05/20 08:55:25;;;;;;;5.97;1.40;;;;;;;;;;5075967;28;20020;-61
2023/05/20 08:57:53;;;;;;;5.60;1.30;;;;;;;;;;5075624;28;20048;-62
2023/05/20 09:00:19;;;;;;;5.20;1.70;;;;;;;;;;5075605;28;20020;-62
2023/05/20 09:02:44;;;;;;;4.38;1.50;;;;;;;;;;5074688;28;20461;-61
2023/05/20 09:05:10;;;;;;;5.90;1.50;;;;;;;;;;5075193;28;20119;-61
2023/05/20 09:07:36;;;;;;;3.38;1.30;;;;;;;;;;5075697;28;20043;-63
2023/05/20 09:10:01;;;;;;;3.03;1.20;;;;;;;;;;5075474;28;20028;-62
2023/05/20 09:12:26;;;;;;;4.18;1.70;;;;;;;;;;5075336;28;20095;-62
2023/05/20 09:14:51;;;;;;;3.45;1.58;;;;;;;;;;5075720;28;20052;-62
2023/05/20 09:17:17;;;;;;;7.68;1.80;;;;;;;;;;5075641;28;20062;-62
2023/05/20 09:19:42;;;;;;;4.78;1.65;;;;;;;;;;5072582;28;20095;-63
2023/05/20 09:22:08;;;;;;;4.40;1.60;;;;;;;;;;5055557;28;20050;-62
2023/05/20 09:24:33;;;;;;;3.38;1.30;;;;;;;;;;5055395;28;20025;-62
2023/05/20 09:26:58;;;;;;;2.10;1.00;;;;;;;;;;5055083;28;20029;-61
2023/05/20 09:29:24;;;;;;;2.72;1.40;;;;;;;;;;5054241;28;20025;-61
2023/05/20 09:31:50;;;;;;;3.67;1.20;;;;;;;;;;5055381;28;20092;-62
2023/05/20 09:34:16;;;;;;;3.22;1.38;;;;;;;;;;5055321;28;20017;-62
2023/05/20 09:36:42;;;;;;;3.90;1.58;;;;;;;;;;5054974;28;20108;-62
2023/05/20 09:39:10;;;;;;;5.07;1.80;;;;;;;;;;5055293;28;20040;-61
2023/05/20 09:41:45;;;;;;;4.22;1.48;;;;;;;;;;5054924;28;20025;-62
2023/05/20 09:44:11;;;;;;;4.10;1.50;;;;;;;;;;5055289;28;20095;-62
2023/05/20 09:46:37;;;;;;;3.05;1.50;;;;;;;;;;5074005;28;20012;-61
2023/05/20 09:49:05;;;;;;;3.95;1.40;;;;;;;;;;5068551;28;20094;-63
2023/05/20 09:51:31;;;;;;;3.35;1.23;;;;;;;;;;5071666;28;20016;-62
2023/05/20 09:53:57;;;;;;;2.78;1.30;;;;;;;;;;5074880;28;20062;-62
2023/05/20 09:56:23;;;;;;;3.90;1.10;;;;;;;;;;5074886;28;20044;-62
2023/05/20 09:58:49;;;;;;;4.85;1.30;;;;;;;;;;5074516;28;20068;-62
2023/05/20 10:01:15;;;;;;;5.80;1.33;;;;;;;;;;5071196;28;20091;-63
2023/05/20 10:03:40;;;;;;;2.15;0.88;;;;;;;;;;5062456;28;20016;-63
2023/05/20 10:06:29;;;;;;;3.03;1.20;;;;;;;;;;5074572;28;20079;-63
2023/05/20 10:09:13;;;;;;;3.65;1.30;;;;;;;;;;5036509;28;20086;-63
2023/05/20 10:11:51;;;;;;;3.03;1.20;;;;;;;;;;5074625;28;20029;-63
2023/05/20 10:14:36;;;;;;;3.22;1.10;;;;;;;;;;5074576;28;20380;-63
2023/05/20 10:17:09;;;;;;;3.58;1.40;;;;;;;;;;4992399;28;20034;-63
2023/05/20 10:19:35;;;;;;;3.40;1.40;;;;;;;;;;4992797;28;20034;-63
2023/05/20 10:22:01;;;;;;;4.10;1.30;;;;;;;;;;4992728;28;20158;-63
2023/05/20 10:24:42;;;;;;;3.97;1.40;;;;;;;;;;4992634;28;20022;-63
2023/05/20 10:27:14;;;;;;;2.47;1.17;;;;;;;;;;4992164;28;20030;-63
2023/05/20 10:29:42;;;;;;;5.10;1.20;;;;;;;;;;4992557;28;20041;-63
2023/05/20 10:32:08;;;;;;;2.53;1.15;;;;;;;;;;4992564;28;20034;-63
2023/05/20 10:34:43;;;;;;;3.88;1.27;;;;;;;;;;4992490;28;20033;-63
2023/05/20 10:37:08;;;;;;;2.58;1.10;;;;;;;;;;4992520;28;20062;-63
2023/05/20 10:39:34;;;;;;;3.38;1.17;;;;;;;;;;4992451;28;20121;-63
2023/05/20 10:42:06;;;;;;;3.53;1.10;;;;;;;;;;4992401;28;20038;-63
2023/05/20 10:44:44;;;;;;;3.58;1.13;;;;;;;;;;4992447;28;20042;-63
2023/05/20 10:47:09;;;;;;;2.60;1.00;;;;;;;;;;4991469;28;20049;-63
2023/05/20 10:49:35;;;;;;;2.35;1.05;;;;;;;;;;4992146;28;20453;-63
2023/05/20 10:52:01;;;;;;;2.70;1.17;;;;;;;;;;5010444;28;20056;-63
2023/05/20 10:54:27;;;;;;;2.72;1.17;;;;;;;;;;5053767;28;20027;-63
2023/05/20 10:56:53;;;;;;;5.05;1.33;;;;;;;;;;5053518;28;20510;-63
2023/05/20 10:59:20;;;;;;;3.22;1.20;;;;;;;;;;5053619;28;20053;-63
2023/05/20 11:01:45;;;;;;;3.33;0.90;;;;;;;;;;5061171;28;20068;-63
2023/05/20 11:04:12;;;;;;;3.95;1.10;;;;;;;;;;5073072;28;20046;-63
2023/05/20 11:06:37;;;;;;;7.22;1.15;;;;;;;;;;5073176;28;20107;-64
2023/05/20 11:09:06;;;;;;;4.88;1.20;;;;;;;;;;5073484;28;20045;-63
2023/05/20 11:11:32;;;;;;;4.25;1.20;;;;;;;;;;5073216;28;20020;-63
2023/05/20 11:13:57;;;;;;;4.60;1.40;;;;;;;;;;5072268;28;20099;-63
2023/05/20 11:16:22;;;;;;;4.72;1.63;;;;;;;;;;5071483;28;20043;-64
2023/05/20 11:18:49;;;;;;;2.92;1.15;;;;;;;;;;5054388;28;20033;-64
2023/05/20 11:21:14;;;;;;;3.85;1.50;;;;;;;;;;5053409;28;20469;-73
2023/05/20 11:23:40;;;;;;;2.85;1.40;;;;;;;;;;5053602;28;20032;-73
2023/05/20 11:26:05;;;;;;;5.05;1.50;;;;;;;;;;5053463;28;20021;-72
2023/05/20 11:28:32;;;;;;;4.82;1.75;;;;;;;;;;5054221;28;20032;-73
2023/05/20 11:30:58;;;;;;;3.13;1.20;;;;;;;;;;5054381;28;20384;-72
2023/05/20 11:33:25;;;;;;;2.40;1.25;;;;;;;;;;5053287;28;20023;-72
2023/05/20 11:35:51;;;;;;;2.92;1.40;;;;;;;;;;5052999;28;20514;-73
2023/05/20 11:38:17;;;;;;;2.47;0.98;;;;;;;;;;5053293;28;20432;-72
2023/05/20 11:40:44;;;;;;;3.30;1.42;;;;;;;;;;5055991;28;20021;-72
2023/05/20 11:43:10;;;;;;;4.22;1.10;;;;;;;;;;5062912;28;20431;-73
2023/05/20 11:45:42;;;;;;;3.15;1.35;;;;;;;;;;5073181;28;20032;-73
2023/05/20 11:48:07;;;;;;;2.90;1.20;;;;;;;;;;5073494;28;20032;-72
2023/05/20 11:50:39;;;;;;;3.40;1.27;;;;;;;;;;5071809;28;20020;-73
2023/05/20 11:53:05;;;;;;;6.03;1.40;;;;;;;;;;5055141;28;20510;-72
2023/05/20 11:55:31;;;;;;;6.68;1.58;;;;;;;;;;5068322;28;20024;-73
2023/05/20 11:57:57;;;;;;;3.78;1.50;;;;;;;;;;5076972;28;20031;-73
2023/05/20 12:00:22;;;;;;;2.85;1.17;;;;;;;;;;5077299;28;20173;-74
2023/05/20 12:02:48;;;;;;;2.80;1.23;;;;;;;;;;5077132;28;20163;-73
2023/05/20 12:05:13;;;;;;;2.22;1.10;;;;;;;;;;5076672;28;20044;-73
2023/05/20 12:07:39;;;;;;;3.47;1.40;;;;;;;;;;5075550;28;20415;-73
2023/05/20 12:10:04;;;;;;;4.22;1.55;;;;;;;;;;5075273;28;20095;-73
2023/05/20 12:12:30;;;;;;;2.45;1.23;;;;;;;;;;5076775;28;20478;-73
2023/05/20 12:14:55;;;;;;;3.65;1.10;;;;;;;;;;5076683;28;20040;-73
2023/05/20 12:17:21;;;;;;;3.83;1.25;;;;;;;;;;5076956;28;20017;-73
2023/05/20 12:19:46;;;;;;;3.17;1.27;;;;;;;;;;5076988;28;20078;-74
2023/05/20 12:22:11;;;;;;;2.95;1.15;;;;;;;;;;5076440;28;20025;-73
2023/05/20 12:24:37;;;;;;;3.80;1.27;;;;;;;;;;5076402;28;20024;-73
2023/05/20 12:27:05;;;;;;;5.35;1.58;;;;;;;;;;5076282;28;20016;-73
2023/05/20 12:29:30;;;;;;;2.85;0.95;;;;;;;;;;5075699;28;20032;-73
2023/05/20 12:31:56;;;;;;;2.10;1.10;;;;;;;;;;5073981;28;20020;-73
2023/05/20 12:34:21;;;;;;;4.25;1.50;;;;;;;;;;5076460;28;20017;-74
2023/05/20 12:36:47;;;;;;;6.78;1.40;;;;;;;;;;5076529;28;20036;-72
2023/05/20 12:39:13;;;;;;;2.90;1.20;;;;;;;;;;5076325;28;20025;-72
2023/05/20 12:41:39;;;;;;;3.88;0.90;;;;;;;;;;5076068;28;20104;-72
2023/05/20 12:44:04;;;;;;;2.80;1.30;;;;;;;;;;5076017;28;20105;-73
2023/05/20 12:46:30;;;;;;;3.50;1.20;;;;;;;;;;5076003;28;20135;-73
2023/05/20 12:48:55;;;;;;;2.97;1.20;;;;;;;;;;5076044;28;20017;-73
2023/05/20 12:51:20;;;;;;;2.05;1.08;;;;;;;;;;5076131;28;20017;-73
2023/05/20 12:53:46;;;;;;;2.80;1.10;;;;;;;;;;5076120;28;20376;-74
2023/05/20 12:56:11;;;;;;;2.05;1.00;;;;;;;;;;5076790;28;20016;-72
2023/05/20 12:58:36;;;;;;;3.67;1.30;;;;;;;;;;5075603;28;20434;-73
2023/05/20 13:01:02;;;;;;;2.60;0.93;;;;;;;;;;5076173;28;20013;-73
2023/05/20 13:03:27;;;;;;;3.60;1.40;;;;;;;;;;5075756;28;20021;-72
2023/05/20 13:05:52;;;;;;;3.92;1.00;;;;;;;;;;5074811;28;20102;-74
2023/05/20 13:08:17;;;;;;;4.28;1.40;;;;;;;;;;5075844;28;20055;-73
2023/05/20 13:10:43;;;;;;;3.17;1.20;;;;;;;;;;5076480;28;20020;-73
2023/05/20 13:13:08;;;;;;;2.95;1.20;;;;;;;;;;5075526;28;20025;-73
2023/05/20 13:15:34;;;;;;;2.05;1.10;;;;;;;;;;5075073;28;20013;-73
2023/05/20 13:18:00;;;;;;;2.75;0.90;;;;;;;;;;5075050;28;20013;-73
2023/05/20 13:20:25;;;;;;;2.70;1.27;;;;;;;;;;5053680;28;20050;-73
2023/05/20 13:22:50;;;;;;;3.38;1.38;;;;;;;;;;5055323;28;20028;-73
2023/05/20 13:25:16;;;;;;;3.45;1.30;;;;;;;;;;5055174;28;20057;-73
2023/05/20 13:27:41;;;;;;;3.08;1.17;;;;;;;;;;5055403;28;20048;-73
2023/05/20 13:30:07;;;;;;;2.60;1.10;;;;;;;;;;5055152;28;20028;-74
2023/05/20 13:32:32;;;;;;;5.65;1.30;;;;;;;;;;5055357;28;20092;-73
2023/05/20 13:34:58;;;;;;;3.45;1.15;;;;;;;;;;5055050;28;20532;-74
2023/05/20 13:37:24;;;;;;;4.50;1.23;;;;;;;;;;5057914;28;20074;-73
2023/05/20 13:39:49;;;;;;;3.22;1.40;;;;;;;;;;5055336;28;20477;-74
2023/05/20 13:42:15;;;;;;;2.85;1.30;;;;;;;;;;5055330;28;20071;-73
2023/05/20 13:44:40;;;;;;;2.67;1.30;;;;;;;;;;5054858;28;20025;-73
2023/05/20 13:47:05;;;;;;;4.35;1.42;;;;;;;;;;5054742;28;20055;-73
2023/05/20 13:49:31;;;;;;;3.28;1.30;;;;;;;;;;5055098;28;20025;-73
2023/05/20 13:51:56;;;;;;;3.25;1.50;;;;;;;;;;5067964;28;20032;-73
2023/05/20 13:54:21;;;;;;;4.70;1.50;;;;;;;;;;5071501;28;20017;-73
2023/05/20 13:56:47;;;;;;;2.60;1.15;;;;;;;;;;5054822;28;20009;-73
2023/05/20 13:59:12;;;;;;;2.90;1.10;;;;;;;;;;5054999;28;20048;-73
2023/05/20 14:01:37;;;;;;;3.85;1.58;;;;;;;;;;5054792;28;20035;-73
2023/05/20 14:04:03;;;;;;;4.50;1.50;;;;;;;;;;5071612;28;20523;-73
2023/05/20 14:06:30;;;;;;;4.75;1.48;;;;;;;;;;5074689;28;20032;-73
2023/05/20 14:08:56;;;;;;;3.83;1.40;;;;;;;;;;5074984;28;20408;-73
2023/05/20 14:11:21;;;;;;;3.45;1.35;;;;;;;;;;5075361;28;20016;-73
2023/05/20 14:13:46;;;;;;;4.88;1.40;;;;;;;;;;5074712;28;20031;-74
2023/05/20 14:16:12;;;;;;;3.30;1.33;;;;;;;;;;5072752;28;20008;-73
2023/05/20 14:18:37;;;;;;;3.00;1.42;;;;;;;;;;5074268;28;20361;-72
2023/05/20 14:21:02;;;;;;;3.15;1.45;;;;;;;;;;5074773;28;20047;-73
2023/05/20 14:23:28;;;;;;;3.90;1.38;;;;;;;;;;5071876;28;20487;-73
2023/05/20 14:25:53;;;;;;;3.65;1.50;;;;;;;;;;5074683;28;20020;-74
2023/05/20 14:28:18;;;;;;;2.80;1.40;;;;;;;;;;5074248;28;20025;-73
2023/05/20 14:30:44;;;;;;;4.47;1.40;;;;;;;;;;5074184;28;20354;-73
2023/05/20 14:33:09;;;;;;;2.67;1.27;;;;;;;;;;5074432;28;20522;-73
2023/05/20 14:35:35;;;;;;;3.70;1.50;;;;;;;;;;5074634;28;20016;-73